OAL900 LEBA-LPCS
Flight info
| Callsign | OAL900 |
|---|---|
| Flight time | 1h 35m |
| Altitude | 6500 |
| Route | WHISKY HOMACHUELOS RIOVIAR MONASTERIO FREGENAL MOURAO MAXED VALVE PINHEIRO SETUBAL FONTEDATELHA COVADOVAPOR CHARLE |
| Aircraft | SR22/L-VGDW/C |
Departure
| Time | 2026-05-06 18:44 |
|---|---|
| Airport | Córdoba Airport (LEBA) |
Arrival
| Time | 2026-05-06 20:19 |
|---|---|
| Airport | Cascais Airport (LPCS) |
| Time | Latitude | Longitude | Altitude | Speed | Heading |
|---|---|---|---|---|---|
| 2026-05-06 18:28 | 37.84576 | -4.84353 | 298 ft | 0 kts | 27° |
| 2026-05-06 18:38 | 37.84585 | -4.84375 | 301 ft | 0 kts | 232° |
| 2026-05-06 18:38 | 37.84574 | -4.84391 | 299 ft | 10 kts | 232° |
| 2026-05-06 18:39 | 37.84513 | -4.84461 | 301 ft | 14 kts | 207° |
| 2026-05-06 18:39 | 37.84504 | -4.84549 | 301 ft | 0 kts | 308° |
| 2026-05-06 18:39 | 37.84506 | -4.84575 | 300 ft | 2 kts | 278° |
| 2026-05-06 18:41 | 37.84510 | -4.84599 | 299 ft | 9 kts | 285° |
| 2026-05-06 18:41 | 37.84505 | -4.84649 | 299 ft | 0 kts | 212° |
| 2026-05-06 18:42 | 37.84490 | -4.84661 | 299 ft | 21 kts | 213° |
| 2026-05-06 18:42 | 37.84151 | -4.84916 | 303 ft | 83 kts | 210° |
| 2026-05-06 18:43 | 37.83566 | -4.85263 | 394 ft | 104 kts | 200° |
| 2026-05-06 18:43 | 37.82893 | -4.85640 | 573 ft | 108 kts | 206° |
| 2026-05-06 18:43 | 37.82221 | -4.86065 | 739 ft | 109 kts | 218° |
| 2026-05-06 18:43 | 37.81905 | -4.86919 | 897 ft | 109 kts | 253° |
| 2026-05-06 18:44 | 37.81771 | -4.87539 | 1014 ft | 115 kts | 252° |
| 2026-05-06 18:44 | 37.81526 | -4.88552 | 1204 ft | 125 kts | 251° |
| 2026-05-06 18:44 | 37.81269 | -4.89637 | 1410 ft | 133 kts | 252° |
| 2026-05-06 18:44 | 37.81003 | -4.90795 | 1609 ft | 141 kts | 252° |
| 2026-05-06 18:45 | 37.80722 | -4.92000 | 1797 ft | 145 kts | 251° |
| 2026-05-06 18:45 | 37.80430 | -4.93223 | 1988 ft | 147 kts | 252° |
| 2026-05-06 18:45 | 37.80132 | -4.94475 | 2171 ft | 150 kts | 252° |
| 2026-05-06 18:45 | 37.79837 | -4.95743 | 2348 ft | 151 kts | 252° |
| 2026-05-06 18:46 | 37.79538 | -4.97014 | 2526 ft | 151 kts | 252° |
| 2026-05-06 18:46 | 37.79238 | -4.98292 | 2709 ft | 152 kts | 252° |
| 2026-05-06 18:46 | 37.78937 | -4.99574 | 2878 ft | 152 kts | 251° |
| 2026-05-06 18:46 | 37.78633 | -5.00858 | 3060 ft | 153 kts | 252° |
| 2026-05-06 18:47 | 37.78329 | -5.02148 | 3221 ft | 153 kts | 251° |
| 2026-05-06 18:47 | 37.78049 | -5.03370 | 3382 ft | 141 kts | 252° |
| 2026-05-06 18:47 | 37.77786 | -5.04516 | 3539 ft | 131 kts | 252° |
| 2026-05-06 18:47 | 37.77751 | -5.05639 | 3687 ft | 127 kts | 274° |
| 2026-05-06 18:48 | 37.77939 | -5.06709 | 3842 ft | 123 kts | 284° |
| 2026-05-06 18:48 | 37.78188 | -5.07737 | 4001 ft | 121 kts | 283° |
| 2026-05-06 18:48 | 37.78428 | -5.08762 | 4170 ft | 123 kts | 283° |
| 2026-05-06 18:48 | 37.78677 | -5.09816 | 4349 ft | 127 kts | 283° |
| 2026-05-06 18:49 | 37.78913 | -5.10901 | 4503 ft | 131 kts | 281° |
| 2026-05-06 18:49 | 37.79118 | -5.12077 | 4527 ft | 142 kts | 280° |
| 2026-05-06 18:49 | 37.79336 | -5.13328 | 4514 ft | 149 kts | 279° |
| 2026-05-06 18:49 | 37.79561 | -5.14628 | 4512 ft | 153 kts | 280° |
| 2026-05-06 18:50 | 37.79789 | -5.15960 | 4514 ft | 156 kts | 280° |
| 2026-05-06 18:50 | 37.80023 | -5.17306 | 4509 ft | 157 kts | 280° |
| 2026-05-06 18:50 | 37.80257 | -5.18654 | 4511 ft | 157 kts | 280° |
| 2026-05-06 18:50 | 37.80492 | -5.20000 | 4516 ft | 154 kts | 280° |
| 2026-05-06 18:51 | 37.80722 | -5.21288 | 4508 ft | 147 kts | 280° |
| 2026-05-06 18:51 | 37.80946 | -5.22524 | 4502 ft | 141 kts | 280° |
| 2026-05-06 18:51 | 37.81161 | -5.23714 | 4499 ft | 136 kts | 280° |
| 2026-05-06 18:51 | 37.81371 | -5.24865 | 4505 ft | 133 kts | 280° |
| 2026-05-06 18:52 | 37.81572 | -5.26004 | 4503 ft | 132 kts | 280° |
| 2026-05-06 18:52 | 37.81774 | -5.27140 | 4504 ft | 133 kts | 279° |
| 2026-05-06 18:52 | 37.81978 | -5.28279 | 4505 ft | 132 kts | 279° |
| 2026-05-06 18:52 | 37.82182 | -5.29412 | 4506 ft | 132 kts | 280° |
| 2026-05-06 18:53 | 37.82383 | -5.30540 | 4512 ft | 132 kts | 279° |
| 2026-05-06 18:53 | 37.82585 | -5.31677 | 4513 ft | 133 kts | 279° |
| 2026-05-06 18:53 | 37.82784 | -5.32817 | 4510 ft | 132 kts | 279° |
| 2026-05-06 18:53 | 37.82989 | -5.33949 | 4515 ft | 132 kts | 280° |
| 2026-05-06 18:54 | 37.83192 | -5.35081 | 4511 ft | 131 kts | 279° |
| 2026-05-06 18:54 | 37.83397 | -5.36201 | 4511 ft | 131 kts | 281° |
| 2026-05-06 18:54 | 37.83599 | -5.37316 | 4512 ft | 129 kts | 280° |
| 2026-05-06 18:54 | 37.83803 | -5.38413 | 4516 ft | 128 kts | 280° |
| 2026-05-06 18:55 | 37.84002 | -5.39509 | 4516 ft | 128 kts | 279° |
| 2026-05-06 18:55 | 37.84208 | -5.40614 | 4513 ft | 129 kts | 279° |
| 2026-05-06 18:55 | 37.84412 | -5.41711 | 4517 ft | 128 kts | 279° |
| 2026-05-06 18:55 | 37.84607 | -5.42789 | 4510 ft | 127 kts | 279° |
| 2026-05-06 18:56 | 37.84810 | -5.43882 | 4515 ft | 126 kts | 280° |
| 2026-05-06 18:56 | 37.85001 | -5.44954 | 4517 ft | 126 kts | 279° |
| 2026-05-06 18:56 | 37.85189 | -5.46019 | 4513 ft | 125 kts | 279° |
| 2026-05-06 18:56 | 37.85387 | -5.47103 | 4528 ft | 129 kts | 279° |
| 2026-05-06 18:57 | 37.85583 | -5.48215 | 4525 ft | 129 kts | 279° |
| 2026-05-06 18:57 | 37.85789 | -5.49325 | 4526 ft | 129 kts | 279° |
| 2026-05-06 18:57 | 37.85995 | -5.50443 | 4525 ft | 131 kts | 279° |
| 2026-05-06 18:57 | 37.86193 | -5.51564 | 4533 ft | 130 kts | 279° |
| 2026-05-06 18:58 | 37.86398 | -5.52692 | 4526 ft | 132 kts | 280° |
| 2026-05-06 18:58 | 37.86609 | -5.53823 | 4529 ft | 132 kts | 281° |
| 2026-05-06 18:58 | 37.86809 | -5.54951 | 4526 ft | 131 kts | 279° |
| 2026-05-06 18:58 | 37.87011 | -5.56076 | 4522 ft | 130 kts | 280° |
| 2026-05-06 18:59 | 37.87218 | -5.57175 | 4512 ft | 126 kts | 280° |
| 2026-05-06 18:59 | 37.87428 | -5.58225 | 4517 ft | 122 kts | 279° |
| 2026-05-06 18:59 | 37.87634 | -5.59268 | 4516 ft | 123 kts | 279° |
| 2026-05-06 18:59 | 37.87829 | -5.60333 | 4525 ft | 127 kts | 279° |
| 2026-05-06 19:00 | 37.88037 | -5.61431 | 4526 ft | 129 kts | 280° |
| 2026-05-06 19:00 | 37.88273 | -5.62539 | 4524 ft | 132 kts | 290° |
| 2026-05-06 19:00 | 37.88694 | -5.63575 | 4529 ft | 131 kts | 293° |
| 2026-05-06 19:00 | 37.89114 | -5.64597 | 4526 ft | 130 kts | 293° |
| 2026-05-06 19:01 | 37.89529 | -5.65615 | 4524 ft | 130 kts | 294° |
| 2026-05-06 19:01 | 37.89954 | -5.66643 | 4529 ft | 133 kts | 293° |
| 2026-05-06 19:01 | 37.90386 | -5.67680 | 4527 ft | 133 kts | 294° |
| 2026-05-06 19:01 | 37.90815 | -5.68718 | 4524 ft | 132 kts | 293° |
| 2026-05-06 19:02 | 37.91215 | -5.69716 | 4521 ft | 123 kts | 293° |
| 2026-05-06 19:02 | 37.91623 | -5.70670 | 4519 ft | 123 kts | 295° |
| 2026-05-06 19:02 | 37.92034 | -5.71648 | 4526 ft | 128 kts | 294° |
| 2026-05-06 19:02 | 37.92468 | -5.72672 | 4529 ft | 137 kts | 293° |
| 2026-05-06 19:03 | 37.92912 | -5.73765 | 4532 ft | 142 kts | 293° |
| 2026-05-06 19:03 | 37.93371 | -5.74889 | 4533 ft | 146 kts | 294° |
| 2026-05-06 19:03 | 37.93842 | -5.76041 | 4532 ft | 149 kts | 294° |
| 2026-05-06 19:03 | 37.94328 | -5.77205 | 4530 ft | 150 kts | 294° |
| 2026-05-06 19:04 | 37.94817 | -5.78382 | 4526 ft | 152 kts | 293° |
| 2026-05-06 19:04 | 37.95308 | -5.79572 | 4533 ft | 153 kts | 294° |
| 2026-05-06 19:04 | 37.95796 | -5.80778 | 4534 ft | 154 kts | 294° |
| 2026-05-06 19:04 | 37.96282 | -5.81979 | 4530 ft | 156 kts | 294° |
| 2026-05-06 19:05 | 37.96778 | -5.83204 | 4533 ft | 157 kts | 294° |
| 2026-05-06 19:05 | 37.97279 | -5.84443 | 4521 ft | 157 kts | 294° |
| 2026-05-06 19:05 | 37.97771 | -5.85663 | 4521 ft | 154 kts | 294° |
| 2026-05-06 19:05 | 37.98257 | -5.86869 | 4525 ft | 154 kts | 294° |
| 2026-05-06 19:06 | 37.98748 | -5.88098 | 4521 ft | 157 kts | 293° |
| 2026-05-06 19:06 | 37.99238 | -5.89345 | 4522 ft | 158 kts | 293° |
| 2026-05-06 19:06 | 37.99739 | -5.90591 | 4524 ft | 159 kts | 294° |
| 2026-05-06 19:06 | 38.00241 | -5.91836 | 4528 ft | 158 kts | 294° |
| 2026-05-06 19:07 | 38.00734 | -5.93080 | 4521 ft | 157 kts | 294° |
| 2026-05-06 19:07 | 38.01218 | -5.94313 | 4526 ft | 156 kts | 294° |
| 2026-05-06 19:07 | 38.01707 | -5.95536 | 4525 ft | 155 kts | 294° |
| 2026-05-06 19:07 | 38.02194 | -5.96758 | 4526 ft | 155 kts | 293° |
| 2026-05-06 19:08 | 38.02677 | -5.97977 | 4521 ft | 154 kts | 293° |
| 2026-05-06 19:08 | 38.03155 | -5.99191 | 4519 ft | 154 kts | 293° |
| 2026-05-06 19:08 | 38.03631 | -6.00404 | 4518 ft | 153 kts | 294° |
| 2026-05-06 19:08 | 38.04104 | -6.01612 | 4522 ft | 153 kts | 294° |
| 2026-05-06 19:09 | 38.04576 | -6.02838 | 4527 ft | 155 kts | 293° |
| 2026-05-06 19:09 | 38.05047 | -6.04063 | 4523 ft | 154 kts | 294° |
| 2026-05-06 19:09 | 38.05515 | -6.05286 | 4523 ft | 154 kts | 291° |
| 2026-05-06 19:09 | 38.05710 | -6.06602 | 4523 ft | 151 kts | 274° |
| 2026-05-06 19:10 | 38.05820 | -6.07930 | 4527 ft | 151 kts | 274° |
| 2026-05-06 19:10 | 38.05927 | -6.09262 | 4521 ft | 152 kts | 275° |
| 2026-05-06 19:10 | 38.06032 | -6.10589 | 4525 ft | 151 kts | 275° |
| 2026-05-06 19:10 | 38.06131 | -6.11915 | 4522 ft | 150 kts | 274° |
| 2026-05-06 19:11 | 38.06233 | -6.13243 | 4527 ft | 152 kts | 275° |
| 2026-05-06 19:11 | 38.06331 | -6.14575 | 4520 ft | 151 kts | 275° |
| 2026-05-06 19:11 | 38.06424 | -6.15902 | 4529 ft | 151 kts | 275° |
| 2026-05-06 19:11 | 38.06519 | -6.17222 | 4526 ft | 150 kts | 274° |
| 2026-05-06 19:12 | 38.06607 | -6.18545 | 4524 ft | 151 kts | 275° |
| 2026-05-06 19:12 | 38.06686 | -6.19861 | 4530 ft | 150 kts | 275° |
| 2026-05-06 19:12 | 38.06760 | -6.21176 | 4524 ft | 148 kts | 275° |
| 2026-05-06 19:12 | 38.06835 | -6.22480 | 4525 ft | 148 kts | 274° |
| 2026-05-06 19:13 | 38.06898 | -6.23793 | 4529 ft | 149 kts | 274° |
| 2026-05-06 19:13 | 38.06966 | -6.25121 | 4532 ft | 152 kts | 275° |
| 2026-05-06 19:13 | 38.07031 | -6.26468 | 4528 ft | 153 kts | 274° |
| 2026-05-06 19:13 | 38.07089 | -6.27808 | 4536 ft | 152 kts | 275° |
| 2026-05-06 19:14 | 38.07154 | -6.29144 | 4528 ft | 153 kts | 275° |
| 2026-05-06 19:14 | 38.07223 | -6.30491 | 4521 ft | 154 kts | 274° |
| 2026-05-06 19:14 | 38.07286 | -6.31836 | 4520 ft | 152 kts | 275° |
| 2026-05-06 19:14 | 38.07344 | -6.33171 | 4524 ft | 151 kts | 275° |
| 2026-05-06 19:15 | 38.07401 | -6.34509 | 4524 ft | 152 kts | 275° |
| 2026-05-06 19:15 | 38.07460 | -6.35853 | 4528 ft | 154 kts | 273° |
| 2026-05-06 19:15 | 38.07510 | -6.37207 | 4531 ft | 153 kts | 275° |
| 2026-05-06 19:15 | 38.07744 | -6.38517 | 4520 ft | 152 kts | 290° |
| 2026-05-06 19:16 | 38.08099 | -6.39774 | 4529 ft | 151 kts | 291° |
| 2026-05-06 19:16 | 38.08443 | -6.41048 | 4526 ft | 153 kts | 290° |
| 2026-05-06 19:16 | 38.08788 | -6.42330 | 4530 ft | 154 kts | 290° |
| 2026-05-06 19:16 | 38.09137 | -6.43618 | 4530 ft | 154 kts | 290° |
| 2026-05-06 19:17 | 38.09491 | -6.44904 | 4525 ft | 154 kts | 290° |
| 2026-05-06 19:17 | 38.09844 | -6.46189 | 4527 ft | 154 kts | 290° |
| 2026-05-06 19:17 | 38.10197 | -6.47464 | 4527 ft | 153 kts | 290° |
| 2026-05-06 19:17 | 38.10544 | -6.48740 | 4525 ft | 153 kts | 290° |
| 2026-05-06 19:18 | 38.10898 | -6.50021 | 4527 ft | 153 kts | 290° |
| 2026-05-06 19:18 | 38.11245 | -6.51301 | 4522 ft | 153 kts | 290° |
| 2026-05-06 19:18 | 38.11588 | -6.52572 | 4524 ft | 153 kts | 290° |
| 2026-05-06 19:18 | 38.11932 | -6.53848 | 4527 ft | 153 kts | 290° |
| 2026-05-06 19:19 | 38.12278 | -6.55130 | 4523 ft | 153 kts | 290° |
| 2026-05-06 19:19 | 38.12624 | -6.56409 | 4523 ft | 153 kts | 290° |
| 2026-05-06 19:19 | 38.12964 | -6.57676 | 4524 ft | 154 kts | 290° |
| 2026-05-06 19:19 | 38.13308 | -6.58964 | 4526 ft | 154 kts | 290° |
| 2026-05-06 19:20 | 38.13652 | -6.60245 | 4523 ft | 153 kts | 290° |
| 2026-05-06 19:20 | 38.13997 | -6.61525 | 4523 ft | 153 kts | 291° |
| 2026-05-06 19:20 | 38.14346 | -6.62802 | 4522 ft | 153 kts | 290° |
| 2026-05-06 19:20 | 38.14689 | -6.64078 | 4519 ft | 152 kts | 290° |
| 2026-05-06 19:21 | 38.15032 | -6.65343 | 4525 ft | 151 kts | 290° |
| 2026-05-06 19:21 | 38.15372 | -6.66607 | 4518 ft | 151 kts | 290° |
| 2026-05-06 19:21 | 38.15715 | -6.67873 | 4524 ft | 152 kts | 290° |
| 2026-05-06 19:21 | 38.16050 | -6.69129 | 4532 ft | 147 kts | 290° |
| 2026-05-06 19:22 | 38.16389 | -6.70375 | 4527 ft | 151 kts | 290° |
| 2026-05-06 19:22 | 38.16728 | -6.71630 | 4527 ft | 150 kts | 290° |
| 2026-05-06 19:22 | 38.17068 | -6.72888 | 4525 ft | 150 kts | 290° |
| 2026-05-06 19:22 | 38.17404 | -6.74153 | 4528 ft | 152 kts | 290° |
| 2026-05-06 19:23 | 38.17744 | -6.75421 | 4530 ft | 151 kts | 291° |
| 2026-05-06 19:23 | 38.18083 | -6.76692 | 4537 ft | 153 kts | 290° |
| 2026-05-06 19:23 | 38.18421 | -6.77981 | 4536 ft | 155 kts | 291° |
| 2026-05-06 19:23 | 38.18762 | -6.79277 | 4530 ft | 153 kts | 289° |
| 2026-05-06 19:24 | 38.19101 | -6.80561 | 4524 ft | 153 kts | 290° |
| 2026-05-06 19:24 | 38.19438 | -6.81842 | 4534 ft | 153 kts | 290° |
| 2026-05-06 19:24 | 38.19777 | -6.83128 | 4526 ft | 154 kts | 290° |
| 2026-05-06 19:24 | 38.20120 | -6.84422 | 4531 ft | 154 kts | 290° |
| 2026-05-06 19:25 | 38.20463 | -6.85718 | 4535 ft | 155 kts | 290° |
| 2026-05-06 19:25 | 38.20807 | -6.87017 | 4537 ft | 155 kts | 290° |
| 2026-05-06 19:25 | 38.21151 | -6.88314 | 4535 ft | 155 kts | 290° |
| 2026-05-06 19:25 | 38.21493 | -6.89605 | 4535 ft | 154 kts | 290° |
| 2026-05-06 19:26 | 38.21841 | -6.90893 | 4536 ft | 154 kts | 290° |
| 2026-05-06 19:26 | 38.22180 | -6.92178 | 4530 ft | 153 kts | 290° |
| 2026-05-06 19:26 | 38.22518 | -6.93453 | 4527 ft | 152 kts | 290° |
| 2026-05-06 19:26 | 38.22857 | -6.94721 | 4527 ft | 151 kts | 290° |
| 2026-05-06 19:27 | 38.23191 | -6.95994 | 4507 ft | 152 kts | 290° |
| 2026-05-06 19:27 | 38.23520 | -6.97265 | 4504 ft | 151 kts | 290° |
| 2026-05-06 19:27 | 38.23848 | -6.98523 | 4506 ft | 150 kts | 290° |
| 2026-05-06 19:27 | 38.24175 | -6.99785 | 4506 ft | 151 kts | 289° |
| 2026-05-06 19:28 | 38.24507 | -7.01051 | 4505 ft | 151 kts | 290° |
| 2026-05-06 19:28 | 38.24838 | -7.02318 | 4507 ft | 151 kts | 290° |
| 2026-05-06 19:28 | 38.25163 | -7.03588 | 4508 ft | 151 kts | 290° |
| 2026-05-06 19:28 | 38.25492 | -7.04838 | 4507 ft | 151 kts | 290° |
| 2026-05-06 19:29 | 38.25825 | -7.06115 | 4502 ft | 153 kts | 290° |
| 2026-05-06 19:29 | 38.26155 | -7.07398 | 4508 ft | 152 kts | 290° |
| 2026-05-06 19:29 | 38.26492 | -7.08673 | 4506 ft | 152 kts | 291° |
| 2026-05-06 19:29 | 38.26822 | -7.09949 | 4508 ft | 153 kts | 290° |
| 2026-05-06 19:30 | 38.27153 | -7.11238 | 4503 ft | 153 kts | 290° |
| 2026-05-06 19:30 | 38.27490 | -7.12525 | 4508 ft | 153 kts | 290° |
| 2026-05-06 19:30 | 38.27826 | -7.13806 | 4507 ft | 152 kts | 290° |
| 2026-05-06 19:30 | 38.28046 | -7.14654 | 4504 ft | 152 kts | 290° |
| 2026-05-06 19:31 | 38.28372 | -7.15933 | 4502 ft | 151 kts | 290° |
| 2026-05-06 19:31 | 38.28697 | -7.17201 | 4505 ft | 151 kts | 290° |
| 2026-05-06 19:31 | 38.29348 | -7.19717 | 4494 ft | 148 kts | 290° |
| 2026-05-06 19:32 | 38.29674 | -7.20962 | 4498 ft | 148 kts | 290° |
| 2026-05-06 19:32 | 38.30000 | -7.22210 | 4494 ft | 149 kts | 290° |
| 2026-05-06 19:32 | 38.30327 | -7.23454 | 4493 ft | 148 kts | 291° |
| 2026-05-06 19:32 | 38.30648 | -7.24694 | 4496 ft | 148 kts | 290° |
| 2026-05-06 19:33 | 38.30970 | -7.25936 | 4494 ft | 148 kts | 290° |
| 2026-05-06 19:33 | 38.31294 | -7.27178 | 4502 ft | 148 kts | 290° |
| 2026-05-06 19:33 | 38.31619 | -7.28430 | 4502 ft | 150 kts | 290° |
| 2026-05-06 19:33 | 38.31941 | -7.29691 | 4500 ft | 149 kts | 290° |
| 2026-05-06 19:34 | 38.32267 | -7.30944 | 4502 ft | 149 kts | 290° |
| 2026-05-06 19:34 | 38.32587 | -7.32203 | 4500 ft | 150 kts | 290° |
| 2026-05-06 19:34 | 38.32909 | -7.33473 | 4512 ft | 152 kts | 290° |
| 2026-05-06 19:34 | 38.33234 | -7.34750 | 4510 ft | 152 kts | 290° |
| 2026-05-06 19:35 | 38.33556 | -7.36026 | 4512 ft | 151 kts | 290° |
| 2026-05-06 19:35 | 38.33877 | -7.37303 | 4511 ft | 151 kts | 290° |
| 2026-05-06 19:35 | 38.34197 | -7.38584 | 4512 ft | 153 kts | 290° |
| 2026-05-06 19:35 | 38.34516 | -7.39871 | 4508 ft | 151 kts | 291° |
| 2026-05-06 19:36 | 38.34832 | -7.41145 | 4507 ft | 151 kts | 290° |
| 2026-05-06 19:36 | 38.35148 | -7.42426 | 4484 ft | 153 kts | 290° |
| 2026-05-06 19:36 | 38.35474 | -7.43754 | 4334 ft | 159 kts | 290° |
| 2026-05-06 19:36 | 38.35806 | -7.45116 | 4198 ft | 163 kts | 291° |
| 2026-05-06 19:37 | 38.36150 | -7.46511 | 4000 ft | 167 kts | 290° |
| 2026-05-06 19:37 | 38.36504 | -7.47925 | 3813 ft | 168 kts | 290° |
| 2026-05-06 19:37 | 38.36923 | -7.49310 | 3616 ft | 167 kts | 296° |
| 2026-05-06 19:37 | 38.37401 | -7.50644 | 3425 ft | 164 kts | 297° |
| 2026-05-06 19:38 | 38.37863 | -7.51945 | 3220 ft | 158 kts | 297° |
| 2026-05-06 19:38 | 38.38307 | -7.53205 | 3018 ft | 153 kts | 296° |
| 2026-05-06 19:38 | 38.38728 | -7.54435 | 2812 ft | 150 kts | 297° |
| 2026-05-06 19:38 | 38.39137 | -7.55650 | 2619 ft | 149 kts | 296° |
| 2026-05-06 19:39 | 38.39535 | -7.56852 | 2440 ft | 143 kts | 296° |
| 2026-05-06 19:39 | 38.39905 | -7.57952 | 2423 ft | 131 kts | 296° |
| 2026-05-06 19:39 | 38.40244 | -7.58981 | 2422 ft | 121 kts | 296° |
| 2026-05-06 19:39 | 38.40564 | -7.59971 | 2424 ft | 124 kts | 295° |
| 2026-05-06 19:40 | 38.40909 | -7.61000 | 2433 ft | 128 kts | 296° |
| 2026-05-06 19:40 | 38.41265 | -7.62062 | 2438 ft | 132 kts | 296° |
| 2026-05-06 19:40 | 38.41611 | -7.63158 | 2442 ft | 135 kts | 296° |
| 2026-05-06 19:40 | 38.41959 | -7.64284 | 2439 ft | 137 kts | 296° |
| 2026-05-06 19:41 | 38.42312 | -7.65411 | 2444 ft | 138 kts | 296° |
| 2026-05-06 19:41 | 38.42678 | -7.66549 | 2444 ft | 139 kts | 296° |
| 2026-05-06 19:41 | 38.43042 | -7.67689 | 2439 ft | 138 kts | 296° |
| 2026-05-06 19:41 | 38.43389 | -7.68819 | 2447 ft | 136 kts | 296° |
| 2026-05-06 19:42 | 38.43741 | -7.69942 | 2448 ft | 137 kts | 295° |
| 2026-05-06 19:42 | 38.44107 | -7.71061 | 2446 ft | 138 kts | 297° |
| 2026-05-06 19:42 | 38.44468 | -7.72204 | 2448 ft | 140 kts | 296° |
| 2026-05-06 19:42 | 38.44819 | -7.73369 | 2447 ft | 141 kts | 296° |
| 2026-05-06 19:43 | 38.45174 | -7.74535 | 2446 ft | 141 kts | 296° |
| 2026-05-06 19:43 | 38.45540 | -7.75701 | 2448 ft | 142 kts | 296° |
| 2026-05-06 19:43 | 38.45905 | -7.76869 | 2454 ft | 142 kts | 296° |
| 2026-05-06 19:43 | 38.46261 | -7.78045 | 2454 ft | 142 kts | 296° |
| 2026-05-06 19:44 | 38.46613 | -7.79213 | 2454 ft | 140 kts | 296° |
| 2026-05-06 19:44 | 38.46966 | -7.80354 | 2452 ft | 137 kts | 296° |
| 2026-05-06 19:44 | 38.47320 | -7.81481 | 2449 ft | 137 kts | 296° |
| 2026-05-06 19:44 | 38.47676 | -7.82607 | 2448 ft | 137 kts | 296° |
| 2026-05-06 19:45 | 38.48030 | -7.83735 | 2452 ft | 137 kts | 296° |
| 2026-05-06 19:45 | 38.48385 | -7.84878 | 2450 ft | 140 kts | 296° |
| 2026-05-06 19:45 | 38.48756 | -7.86036 | 2455 ft | 142 kts | 296° |
| 2026-05-06 19:45 | 38.49134 | -7.87213 | 2457 ft | 144 kts | 296° |
| 2026-05-06 19:46 | 38.49510 | -7.88409 | 2460 ft | 146 kts | 296° |
| 2026-05-06 19:46 | 38.49883 | -7.89613 | 2461 ft | 146 kts | 295° |
| 2026-05-06 19:46 | 38.50284 | -7.90812 | 2463 ft | 147 kts | 297° |
| 2026-05-06 19:46 | 38.50685 | -7.92016 | 2467 ft | 147 kts | 297° |
| 2026-05-06 19:47 | 38.51066 | -7.93222 | 2471 ft | 146 kts | 296° |
| 2026-05-06 19:47 | 38.51443 | -7.94425 | 2458 ft | 145 kts | 296° |
| 2026-05-06 19:47 | 38.51794 | -7.95623 | 2460 ft | 146 kts | 289° |
| 2026-05-06 19:47 | 38.51832 | -7.96915 | 2454 ft | 148 kts | 275° |
| 2026-05-06 19:48 | 38.51819 | -7.98235 | 2455 ft | 145 kts | 276° |
| 2026-05-06 19:48 | 38.51832 | -7.99500 | 2457 ft | 144 kts | 276° |
| 2026-05-06 19:48 | 38.51849 | -8.00776 | 2455 ft | 144 kts | 276° |
| 2026-05-06 19:48 | 38.51865 | -8.02059 | 2466 ft | 146 kts | 276° |
| 2026-05-06 19:49 | 38.51874 | -8.03370 | 2468 ft | 149 kts | 276° |
| 2026-05-06 19:49 | 38.51862 | -8.04700 | 2468 ft | 150 kts | 275° |
| 2026-05-06 19:49 | 38.51861 | -8.06039 | 2474 ft | 151 kts | 276° |
| 2026-05-06 19:49 | 38.51868 | -8.07375 | 2466 ft | 149 kts | 276° |
| 2026-05-06 19:50 | 38.51869 | -8.08680 | 2470 ft | 146 kts | 276° |
| 2026-05-06 19:50 | 38.51881 | -8.09981 | 2469 ft | 147 kts | 277° |
| 2026-05-06 19:50 | 38.51876 | -8.11288 | 2465 ft | 147 kts | 276° |
| 2026-05-06 19:50 | 38.51861 | -8.12586 | 2473 ft | 146 kts | 276° |
| 2026-05-06 19:51 | 38.51848 | -8.13887 | 2463 ft | 146 kts | 275° |
| 2026-05-06 19:51 | 38.51850 | -8.15187 | 2466 ft | 146 kts | 276° |
| 2026-05-06 19:51 | 38.51857 | -8.16480 | 2475 ft | 145 kts | 276° |
| 2026-05-06 19:51 | 38.51869 | -8.17777 | 2477 ft | 148 kts | 276° |
| 2026-05-06 19:52 | 38.51866 | -8.19095 | 2473 ft | 148 kts | 276° |
| 2026-05-06 19:52 | 38.51856 | -8.20412 | 2478 ft | 149 kts | 276° |
| 2026-05-06 19:52 | 38.51842 | -8.21736 | 2477 ft | 149 kts | 275° |
| 2026-05-06 19:52 | 38.51843 | -8.23047 | 2482 ft | 148 kts | 276° |
| 2026-05-06 19:53 | 38.51852 | -8.24367 | 2483 ft | 149 kts | 276° |
| 2026-05-06 19:53 | 38.51858 | -8.25691 | 2480 ft | 149 kts | 276° |
| 2026-05-06 19:53 | 38.51860 | -8.27009 | 2480 ft | 148 kts | 276° |
| 2026-05-06 19:53 | 38.51852 | -8.28327 | 2474 ft | 148 kts | 275° |
| 2026-05-06 19:54 | 38.51849 | -8.29637 | 2481 ft | 147 kts | 276° |
| 2026-05-06 19:54 | 38.51847 | -8.30935 | 2478 ft | 146 kts | 276° |
| 2026-05-06 19:54 | 38.51839 | -8.32220 | 2482 ft | 145 kts | 276° |
| 2026-05-06 19:54 | 38.51826 | -8.33509 | 2479 ft | 146 kts | 276° |
| 2026-05-06 19:55 | 38.51823 | -8.34789 | 2472 ft | 146 kts | 276° |
| 2026-05-06 19:55 | 38.51818 | -8.36072 | 2475 ft | 143 kts | 276° |
| 2026-05-06 19:55 | 38.51800 | -8.37361 | 2458 ft | 148 kts | 275° |
| 2026-05-06 19:55 | 38.51778 | -8.38696 | 2367 ft | 153 kts | 276° |
| 2026-05-06 19:56 | 38.51761 | -8.40065 | 2266 ft | 155 kts | 276° |
| 2026-05-06 19:56 | 38.51747 | -8.41432 | 2175 ft | 153 kts | 276° |
| 2026-05-06 19:56 | 38.51743 | -8.42794 | 2071 ft | 154 kts | 276° |
| 2026-05-06 19:56 | 38.51738 | -8.44156 | 1991 ft | 152 kts | 276° |
| 2026-05-06 19:57 | 38.51735 | -8.45486 | 1991 ft | 149 kts | 276° |
| 2026-05-06 19:57 | 38.51729 | -8.46794 | 1985 ft | 145 kts | 276° |
| 2026-05-06 19:57 | 38.51725 | -8.48084 | 1979 ft | 146 kts | 276° |
| 2026-05-06 19:57 | 38.51718 | -8.49377 | 1979 ft | 146 kts | 275° |
| 2026-05-06 19:58 | 38.51710 | -8.50669 | 1986 ft | 145 kts | 276° |
| 2026-05-06 19:58 | 38.51695 | -8.51956 | 1987 ft | 146 kts | 276° |
| 2026-05-06 19:58 | 38.51693 | -8.53247 | 1990 ft | 145 kts | 276° |
| 2026-05-06 19:58 | 38.51697 | -8.54523 | 1989 ft | 141 kts | 276° |
| 2026-05-06 19:59 | 38.51698 | -8.55735 | 1982 ft | 131 kts | 276° |
| 2026-05-06 19:59 | 38.51683 | -8.56887 | 1990 ft | 131 kts | 276° |
| 2026-05-06 19:59 | 38.51659 | -8.58081 | 1986 ft | 137 kts | 275° |
| 2026-05-06 19:59 | 38.51636 | -8.59309 | 1989 ft | 140 kts | 275° |
| 2026-05-06 20:00 | 38.51619 | -8.60574 | 2000 ft | 144 kts | 276° |
| 2026-05-06 20:00 | 38.51609 | -8.61855 | 2004 ft | 145 kts | 276° |
| 2026-05-06 20:00 | 38.51583 | -8.63149 | 2004 ft | 146 kts | 276° |
| 2026-05-06 20:00 | 38.51560 | -8.64448 | 1998 ft | 146 kts | 275° |
| 2026-05-06 20:01 | 38.51548 | -8.65738 | 1993 ft | 146 kts | 276° |
| 2026-05-06 20:01 | 38.51536 | -8.67036 | 2001 ft | 146 kts | 276° |
| 2026-05-06 20:01 | 38.51524 | -8.68344 | 2003 ft | 149 kts | 276° |
| 2026-05-06 20:01 | 38.51508 | -8.69673 | 2002 ft | 150 kts | 275° |
| 2026-05-06 20:02 | 38.51491 | -8.71001 | 2001 ft | 150 kts | 276° |
| 2026-05-06 20:02 | 38.51474 | -8.72322 | 1995 ft | 148 kts | 275° |
| 2026-05-06 20:02 | 38.51462 | -8.73626 | 1996 ft | 147 kts | 276° |
| 2026-05-06 20:02 | 38.51441 | -8.74930 | 1996 ft | 147 kts | 275° |
| 2026-05-06 20:03 | 38.51430 | -8.76241 | 1992 ft | 149 kts | 276° |
| 2026-05-06 20:03 | 38.51418 | -8.77569 | 1997 ft | 150 kts | 275° |
| 2026-05-06 20:03 | 38.51418 | -8.78915 | 2001 ft | 153 kts | 276° |
| 2026-05-06 20:03 | 38.51400 | -8.80277 | 2006 ft | 153 kts | 276° |
| 2026-05-06 20:04 | 38.51380 | -8.81640 | 2008 ft | 154 kts | 276° |
| 2026-05-06 20:04 | 38.51363 | -8.82999 | 2004 ft | 152 kts | 275° |
| 2026-05-06 20:04 | 38.51368 | -8.84343 | 2009 ft | 152 kts | 275° |
| 2026-05-06 20:04 | 38.51370 | -8.85706 | 2008 ft | 153 kts | 275° |
| 2026-05-06 20:05 | 38.51382 | -8.87084 | 2008 ft | 158 kts | 276° |
| 2026-05-06 20:05 | 38.51401 | -8.88471 | 2000 ft | 153 kts | 281° |
| 2026-05-06 20:05 | 38.51554 | -8.89804 | 2001 ft | 150 kts | 286° |
| 2026-05-06 20:05 | 38.51754 | -8.91114 | 1993 ft | 151 kts | 286° |
| 2026-05-06 20:06 | 38.51947 | -8.92420 | 1991 ft | 150 kts | 286° |
| 2026-05-06 20:06 | 38.52153 | -8.93720 | 1994 ft | 149 kts | 289° |
| 2026-05-06 20:06 | 38.52400 | -8.95013 | 2000 ft | 151 kts | 290° |
| 2026-05-06 20:06 | 38.52650 | -8.96320 | 1992 ft | 151 kts | 290° |
| 2026-05-06 20:07 | 38.52895 | -8.97611 | 1997 ft | 149 kts | 289° |
| 2026-05-06 20:07 | 38.53137 | -8.98876 | 2002 ft | 149 kts | 290° |
| 2026-05-06 20:07 | 38.53383 | -9.00157 | 1997 ft | 148 kts | 290° |
| 2026-05-06 20:07 | 38.53621 | -9.01428 | 1995 ft | 147 kts | 289° |
| 2026-05-06 20:08 | 38.53856 | -9.02704 | 1992 ft | 148 kts | 289° |
| 2026-05-06 20:08 | 38.54092 | -9.03985 | 1993 ft | 148 kts | 289° |
| 2026-05-06 20:08 | 38.54329 | -9.05264 | 1989 ft | 146 kts | 289° |
| 2026-05-06 20:08 | 38.54556 | -9.06529 | 2000 ft | 146 kts | 289° |
| 2026-05-06 20:09 | 38.54792 | -9.07796 | 2001 ft | 147 kts | 290° |
| 2026-05-06 20:09 | 38.54979 | -9.09091 | 2002 ft | 152 kts | 279° |
| 2026-05-06 20:09 | 38.54947 | -9.10434 | 2004 ft | 150 kts | 274° |
| 2026-05-06 20:09 | 38.54919 | -9.11748 | 1997 ft | 147 kts | 275° |
| 2026-05-06 20:10 | 38.54884 | -9.13045 | 1993 ft | 145 kts | 274° |
| 2026-05-06 20:10 | 38.54842 | -9.14313 | 1995 ft | 141 kts | 275° |
| 2026-05-06 20:10 | 38.54791 | -9.15542 | 1998 ft | 137 kts | 272° |
| 2026-05-06 20:10 | 38.54638 | -9.16755 | 1990 ft | 138 kts | 268° |
| 2026-05-06 20:11 | 38.54491 | -9.17946 | 1998 ft | 134 kts | 269° |
| 2026-05-06 20:11 | 38.54350 | -9.19129 | 1996 ft | 135 kts | 269° |
| 2026-05-06 20:11 | 38.54203 | -9.20300 | 1996 ft | 132 kts | 268° |
| 2026-05-06 20:11 | 38.54056 | -9.21439 | 1997 ft | 128 kts | 270° |
| 2026-05-06 20:12 | 38.54074 | -9.22532 | 1997 ft | 123 kts | 283° |
| 2026-05-06 20:12 | 38.54274 | -9.23579 | 1860 ft | 120 kts | 311° |
| 2026-05-06 20:12 | 38.54833 | -9.24359 | 1744 ft | 122 kts | 317° |
| 2026-05-06 20:12 | 38.55408 | -9.25169 | 1623 ft | 125 kts | 316° |
| 2026-05-06 20:13 | 38.56019 | -9.25963 | 1525 ft | 124 kts | 325° |
| 2026-05-06 20:13 | 38.56715 | -9.26559 | 1527 ft | 118 kts | 328° |
| 2026-05-06 20:13 | 38.57377 | -9.27163 | 1526 ft | 116 kts | 326° |
| 2026-05-06 20:13 | 38.58026 | -9.27766 | 1525 ft | 115 kts | 326° |
| 2026-05-06 20:14 | 38.58674 | -9.28370 | 1522 ft | 117 kts | 326° |
| 2026-05-06 20:14 | 38.59337 | -9.28988 | 1524 ft | 119 kts | 326° |
| 2026-05-06 20:14 | 38.60008 | -9.29613 | 1525 ft | 120 kts | 326° |
| 2026-05-06 20:14 | 38.60457 | -9.30029 | 1528 ft | 121 kts | 327° |
| 2026-05-06 20:15 | 38.61150 | -9.30671 | 1534 ft | 122 kts | 326° |
| 2026-05-06 20:15 | 38.61842 | -9.31305 | 1530 ft | 123 kts | 326° |
| 2026-05-06 20:15 | 38.62777 | -9.32140 | 1531 ft | 124 kts | 330° |
| 2026-05-06 20:15 | 38.63320 | -9.32406 | 1529 ft | 125 kts | 344° |
| 2026-05-06 20:16 | 38.64170 | -9.32708 | 1467 ft | 130 kts | 343° |
| 2026-05-06 20:16 | 38.65024 | -9.32998 | 1329 ft | 119 kts | 345° |
| 2026-05-06 20:16 | 38.65786 | -9.33262 | 1160 ft | 109 kts | 344° |
| 2026-05-06 20:16 | 38.66506 | -9.33519 | 1021 ft | 104 kts | 348° |
| 2026-05-06 20:17 | 38.67180 | -9.33682 | 1011 ft | 93 kts | 349° |
| 2026-05-06 20:17 | 38.67773 | -9.33836 | 1007 ft | 81 kts | 348° |
| 2026-05-06 20:17 | 38.68311 | -9.34043 | 910 ft | 81 kts | 345° |
| 2026-05-06 20:17 | 38.68841 | -9.34245 | 857 ft | 78 kts | 346° |
| 2026-05-06 20:18 | 38.69373 | -9.34438 | 798 ft | 82 kts | 347° |
| 2026-05-06 20:18 | 38.69957 | -9.34623 | 678 ft | 92 kts | 347° |
| 2026-05-06 20:18 | 38.70588 | -9.34835 | 545 ft | 95 kts | 348° |
| 2026-05-06 20:18 | 38.71223 | -9.35053 | 420 ft | 96 kts | 349° |
| 2026-05-06 20:19 | 38.71813 | -9.35276 | 344 ft | 80 kts | 349° |
| 2026-05-06 20:19 | 38.72297 | -9.35441 | 321 ft | 61 kts | 344° |
| 2026-05-06 20:19 | 38.72536 | -9.35560 | 320 ft | 9 kts | 269° |
| 2026-05-06 20:19 | 38.72526 | -9.35621 | 320 ft | 2 kts | 234° |
| 2026-05-06 20:20 | 38.72496 | -9.35625 | 320 ft | 5 kts | 162° |
| 2026-05-06 20:20 | 38.72418 | -9.35589 | 320 ft | 19 kts | 164° |
| 2026-05-06 20:20 | 38.72323 | -9.35632 | 320 ft | 19 kts | 263° |
| 2026-05-06 20:20 | 38.72251 | -9.35741 | 321 ft | 10 kts | 180° |
| 2026-05-06 20:21 | 38.72212 | -9.35757 | 321 ft | 4 kts | 248° |
| 2026-05-06 20:21 | 38.72209 | -9.35774 | 321 ft | 0 kts | 265° |